Time;durP1;ratioP1;P1;durP2;ratioP2;P2;SDS_P1;SDS_P2;PMS_P1;PMS_P2;Temp;Humidity;BMP_temperature;BMP_pressure;BME280_temperature;BME280_humidity;BME280_pressure;Samples;Min_cycle;Max_cycle;Signal;HPM_P1;HPM_P2
2023/12/18 00:00:05;;;;;;;22.60;15.90;;;;;;;4.80;61.48;100722.00;8362754;23;20172;-73
2023/12/18 00:03:29;;;;;;;24.57;17.33;;;;;;;5.17;61.06;100711.84;8363044;23;20198;-73
2023/12/18 00:06:51;;;;;;;18.60;15.47;;;;;;;4.99;61.84;100716.00;8361938;23;20182;-73
2023/12/18 00:10:12;;;;;;;20.37;15.83;;;;;;;5.28;61.56;100706.47;8360745;23;20309;-73
2023/12/18 00:13:33;;;;;;;20.50;16.93;;;;;;;5.37;60.53;100711.09;8362968;23;20665;-73
2023/12/18 00:16:55;;;;;;;21.63;15.70;;;;;;;5.08;60.54;100710.78;8363025;23;20857;-73
2023/12/18 00:20:18;;;;;;;18.80;15.60;;;;;;;5.18;60.53;100676.97;8362036;23;20260;-73
2023/12/18 00:23:39;;;;;;;22.90;16.77;;;;;;;5.38;59.85;100692.25;8363530;23;20265;-73
2023/12/18 00:27:01;;;;;;;18.07;15.53;;;;;;;5.24;60.08;100699.72;8363142;23;20260;-73
2023/12/18 00:30:22;;;;;;;24.63;15.83;;;;;;;5.29;60.18;100684.09;8361462;23;20217;-73
2023/12/18 00:33:44;;;;;;;21.33;15.87;;;;;;;5.33;59.77;100690.91;8363129;23;20244;-76
2023/12/18 00:37:07;;;;;;;22.63;16.13;;;;;;;5.05;60.23;100688.78;8363552;23;20584;-73
2023/12/18 00:40:28;;;;;;;22.37;15.17;;;;;;;5.10;60.81;100689.25;8362032;23;20323;-75
2023/12/18 00:43:50;;;;;;;21.67;15.40;;;;;;;4.90;61.22;100690.03;8363618;23;20709;-73
2023/12/18 00:47:11;;;;;;;22.80;16.03;;;;;;;4.95;60.86;100693.19;8363485;23;20259;-73
2023/12/18 00:50:33;;;;;;;20.40;15.20;;;;;;;4.73;61.01;100693.22;8362707;23;20211;-74
2023/12/18 00:53:55;;;;;;;23.20;15.43;;;;;;;4.93;60.49;100685.28;8363437;23;20636;-73
2023/12/18 00:57:17;;;;;;;18.50;14.77;;;;;;;4.96;60.57;100685.03;8362919;23;20287;-73
2023/12/18 01:00:38;;;;;;;19.97;16.43;;;;;;;5.01;59.89;100680.16;8362585;23;20245;-74
2023/12/18 01:04:00;;;;;;;16.63;14.33;;;;;;;5.16;59.66;100676.25;8363427;23;20272;-73
2023/12/18 01:07:22;;;;;;;17.40;14.47;;;;;;;5.14;59.20;100694.22;8363341;23;20620;-74
2023/12/18 01:10:45;;;;;;;20.03;15.47;;;;;;;5.23;59.50;100669.44;8362329;23;20518;-74
2023/12/18 01:14:06;;;;;;;19.13;15.50;;;;;;;5.18;59.12;100666.28;8363427;23;20221;-73
2023/12/18 01:17:27;;;;;;;19.80;14.70;;;;;;;4.84;59.63;100680.69;8360611;23;20275;-73
2023/12/18 01:20:49;;;;;;;24.47;15.90;;;;;;;4.40;60.71;100687.88;8361991;23;20592;-75
2023/12/18 01:24:10;;;;;;;19.30;15.17;;;;;;;4.73;61.08;100678.00;8362866;23;20259;-73
2023/12/18 01:27:33;;;;;;;20.07;14.87;;;;;;;4.98;60.62;100674.22;8363423;23;20210;-73
2023/12/18 01:30:55;;;;;;;19.10;14.70;;;;;;;4.93;61.15;100661.25;8360817;23;20255;-73
2023/12/18 01:34:16;;;;;;;19.77;15.00;;;;;;;5.03;60.85;100675.56;8360288;23;20229;-73
2023/12/18 01:37:38;;;;;;;18.40;14.80;;;;;;;5.19;60.87;100670.66;8361334;23;20813;-75
2023/12/18 01:40:59;;;;;;;21.60;14.90;;;;;;;5.10;60.89;100667.88;8361976;23;20221;-73
2023/12/18 01:44:22;;;;;;;19.33;15.50;;;;;;;5.21;61.48;100671.38;8363253;23;20709;-73
2023/12/18 01:47:44;;;;;;;17.13;15.03;;;;;;;5.14;62.02;100650.63;8362729;23;20208;-73
2023/12/18 01:51:05;;;;;;;17.17;14.20;;;;;;;4.70;62.51;100656.91;8361741;23;20285;-73
2023/12/18 01:54:27;;;;;;;18.27;14.83;;;;;;;4.87;62.62;100664.41;8361522;23;20217;-74
2023/12/18 01:57:49;;;;;;;19.07;13.40;;;;;;;5.17;61.98;100637.84;8361546;23;20300;-73
2023/12/18 02:01:12;;;;;;;17.53;13.70;;;;;;;5.55;60.97;100634.66;8360657;23;20220;-73
2023/12/18 02:04:33;;;;;;;15.13;13.27;;;;;;;4.81;61.81;100637.31;8362543;23;20627;-73
2023/12/18 02:07:55;;;;;;;14.93;12.73;;;;;;;4.39;64.56;100636.28;8362246;23;20178;-73
2023/12/18 02:11:17;;;;;;;19.20;14.87;;;;;;;4.67;65.09;100645.63;8361389;23;20233;-73
2023/12/18 02:14:38;;;;;;;17.77;14.27;;;;;;;5.48;62.50;100628.13;8361101;23;20186;-73
2023/12/18 02:18:01;;;;;;;19.50;13.63;;;;;;;5.65;61.66;100631.06;8360729;23;20331;-73
2023/12/18 02:21:23;;;;;;;15.77;13.40;;;;;;;5.88;61.28;100621.09;8360790;23;20284;-76
2023/12/18 02:24:45;;;;;;;16.20;12.30;;;;;;;5.46;61.34;100630.06;8362350;23;20790;-73
2023/12/18 02:28:08;;;;;;;15.33;12.33;;;;;;;5.55;61.14;100635.47;8362284;23;20223;-73
2023/12/18 02:31:30;;;;;;;13.17;10.87;;;;;;;5.56;61.23;100628.31;8360503;23;20597;-73
2023/12/18 02:34:52;;;;;;;14.20;12.30;;;;;;;5.10;62.22;100623.28;8362003;23;20213;-74
2023/12/18 02:38:14;;;;;;;14.37;12.87;;;;;;;5.67;61.03;100629.09;8363256;23;20182;-73
2023/12/18 02:41:37;;;;;;;14.23;12.63;;;;;;;5.51;61.06;100630.53;8362623;23;20240;-73
2023/12/18 02:44:58;;;;;;;16.80;11.93;;;;;;;5.43;61.50;100628.50;8363796;23;20182;-73
2023/12/18 02:48:20;;;;;;;14.33;12.27;;;;;;;5.32;62.07;100620.50;8363761;23;20271;-73
2023/12/18 02:51:42;;;;;;;15.33;13.63;;;;;;;5.26;62.23;100621.03;8363284;23;20248;-76
2023/12/18 02:55:04;;;;;;;15.07;12.47;;;;;;;5.54;61.68;100625.75;8362363;23;20264;-74
2023/12/18 02:58:27;;;;;;;16.43;12.83;;;;;;;5.28;61.65;100621.75;8364208;23;20263;-74
2023/12/18 03:01:48;;;;;;;17.77;12.70;;;;;;;5.30;61.64;100610.94;8363490;23;20237;-73
2023/12/18 03:05:10;;;;;;;15.33;11.90;;;;;;;4.99;62.18;100604.59;8364256;23;20230;-73
2023/12/18 03:08:31;;;;;;;15.67;13.47;;;;;;;5.50;61.30;100600.28;8363566;23;20213;-73
2023/12/18 03:11:53;;;;;;;14.57;12.70;;;;;;;5.83;61.01;100600.09;8361325;23;20285;-73
2023/12/18 03:15:15;;;;;;;15.33;12.37;;;;;;;6.03;60.71;100577.81;8363459;23;20266;-73
2023/12/18 03:18:37;;;;;;;18.10;12.70;;;;;;;6.03;60.41;100585.84;8362283;23;20799;-73
2023/12/18 03:21:58;;;;;;;15.23;12.20;;;;;;;5.71;61.01;100585.06;8361783;23;20689;-73
2023/12/18 03:25:20;;;;;;;17.57;12.73;;;;;;;5.83;61.09;100594.72;8364082;23;20262;-75
2023/12/18 03:28:41;;;;;;;16.83;12.67;;;;;;;5.67;61.18;100596.97;8362812;23;20260;-76
2023/12/18 03:32:04;;;;;;;16.43;13.43;;;;;;;5.70;61.16;100590.53;8362513;23;20284;-73
2023/12/18 03:35:26;;;;;;;15.20;12.50;;;;;;;5.41;61.53;100589.47;8364134;23;20233;-73
2023/12/18 03:38:47;;;;;;;15.67;13.13;;;;;;;5.98;60.64;100580.03;8362741;23;20290;-73
2023/12/18 03:42:09;;;;;;;14.23;12.13;;;;;;;5.58;61.02;100563.00;8361521;23;20214;-73
2023/12/18 03:45:30;;;;;;;14.57;12.00;;;;;;;5.19;62.58;100561.00;8362608;23;20701;-76
2023/12/18 03:48:53;;;;;;;16.10;11.90;;;;;;;5.70;61.33;100575.34;8362903;23;20218;-73
2023/12/18 03:52:14;;;;;;;13.33;11.17;;;;;;;5.72;61.07;100570.69;8363912;23;20234;-75
2023/12/18 03:55:36;;;;;;;14.33;12.83;;;;;;;5.58;61.88;100575.53;8363432;23;20644;-73
2023/12/18 03:58:57;;;;;;;15.10;11.67;;;;;;;5.90;61.29;100568.31;8361688;23;20271;-74
2023/12/18 04:02:19;;;;;;;15.33;12.23;;;;;;;6.16;60.03;100570.41;8361794;23;20701;-74
2023/12/18 04:05:42;;;;;;;16.03;11.27;;;;;;;6.26;59.24;100567.75;8363525;23;20260;-73
2023/12/18 04:09:03;;;;;;;13.50;11.30;;;;;;;6.27;59.42;100561.41;8363513;23;20630;-73
2023/12/18 04:12:25;;;;;;;12.30;10.87;;;;;;;6.39;58.97;100561.19;8363276;23;20206;-76
2023/12/18 04:15:46;;;;;;;13.30;9.73;;;;;;;6.42;59.42;100568.94;8363087;23;20576;-75
2023/12/18 04:19:08;;;;;;;12.27;10.23;;;;;;;6.30;58.98;100559.31;8362003;23;20284;-74
2023/12/18 04:22:31;;;;;;;13.27;11.07;;;;;;;6.43;58.64;100562.59;8362561;23;20234;-76
2023/12/18 04:25:52;;;;;;;13.47;10.63;;;;;;;6.17;59.35;100533.75;8364165;23;20228;-73
2023/12/18 04:29:14;;;;;;;12.37;10.07;;;;;;;6.38;58.98;100553.28;8363111;23;20608;-73
2023/12/18 04:32:35;;;;;;;13.60;11.27;;;;;;;6.36;58.76;100555.25;8361477;23;20764;-73
2023/12/18 04:35:57;;;;;;;12.60;10.77;;;;;;;6.27;59.14;100558.75;8361378;23;20201;-73
2023/12/18 04:39:20;;;;;;;12.97;10.10;;;;;;;5.79;59.81;100563.81;8361262;23;20324;-73
2023/12/18 04:42:41;;;;;;;11.07;9.97;;;;;;;5.72;59.40;100572.53;8363904;23;20284;-73
2023/12/18 04:46:03;;;;;;;11.30;10.10;;;;;;;5.90;59.85;100558.44;8363066;23;20221;-73
2023/12/18 04:49:25;;;;;;;14.07;10.43;;;;;;;5.63;59.73;100568.81;8362389;23;20764;-73
2023/12/18 04:52:46;;;;;;;11.30;10.17;;;;;;;5.88;58.68;100556.84;8362785;23;20634;-73
2023/12/18 04:56:09;;;;;;;11.47;9.93;;;;;;;5.80;58.23;100556.69;8361719;23;20207;-76
2023/12/18 04:59:31;;;;;;;12.83;11.37;;;;;;;5.55;58.79;100565.91;8360764;23;20217;-73
2023/12/18 05:02:52;;;;;;;11.43;10.00;;;;;;;5.59;58.49;100563.84;8361547;23;20230;-74
2023/12/18 05:06:20;;;;;;;12.97;10.87;;;;;;;5.67;58.51;100577.44;8361976;23;20296;-73
2023/12/18 05:09:42;;;;;;;13.33;11.67;;;;;;;5.38;58.82;100577.22;8360665;23;20213;-73
2023/12/18 05:13:05;;;;;;;13.53;11.40;;;;;;;5.29;58.51;100572.66;8362253;23;20240;-73
2023/12/18 05:16:26;;;;;;;12.00;10.47;;;;;;;5.19;58.77;100582.41;8362023;23;20246;-73
2023/12/18 05:19:47;;;;;;;16.03;11.70;;;;;;;5.06;58.44;100573.72;8360841;23;20268;-73
2023/12/18 05:23:09;;;;;;;14.93;11.23;;;;;;;5.03;58.90;100587.34;8360154;23;20292;-74
2023/12/18 05:26:30;;;;;;;16.20;12.07;;;;;;;4.88;59.97;100582.41;8362618;23;20232;-73
2023/12/18 05:29:53;;;;;;;14.93;12.47;;;;;;;4.68;60.02;100578.72;8348122;23;20407;-75
2023/12/18 05:33:15;;;;;;;16.83;12.47;;;;;;;4.92;59.04;100549.97;8361530;23;20279;-73
2023/12/18 05:36:36;;;;;;;14.53;11.37;;;;;;;4.72;58.84;100582.81;8375102;23;20198;-73
2023/12/18 05:39:58;;;;;;;14.50;12.27;;;;;;;5.08;59.02;100563.72;8361695;23;20320;-73
2023/12/18 05:43:19;;;;;;;15.83;12.37;;;;;;;5.08;58.57;100555.72;8363015;23;20671;-76
2023/12/18 05:46:42;;;;;;;14.80;12.13;;;;;;;4.91;59.31;100560.78;8362549;23;20210;-75
2023/12/18 05:50:04;;;;;;;13.83;11.60;;;;;;;4.41;60.04;100570.25;8362384;23;20213;-75
2023/12/18 05:53:25;;;;;;;15.27;11.63;;;;;;;4.28;60.58;100553.53;8362991;23;20674;-77
2023/12/18 05:56:47;;;;;;;14.83;11.73;;;;;;;4.35;61.60;100562.72;8362753;23;20284;-73
2023/12/18 06:00:10;;;;;;;13.73;10.97;;;;;;;4.72;60.89;100571.28;8362041;23;20193;-73
2023/12/18 06:03:33;;;;;;;12.83;11.37;;;;;;;4.96;60.18;100553.22;8363771;23;20202;-73
2023/12/18 06:06:54;;;;;;;13.57;11.63;;;;;;;4.76;60.44;100562.03;8364210;23;20309;-73
2023/12/18 06:10:16;;;;;;;12.63;11.10;;;;;;;5.15;59.62;100570.28;8363046;23;20316;-76
2023/12/18 06:13:39;;;;;;;15.87;12.17;;;;;;;4.91;59.34;100572.34;8363833;23;20268;-73
2023/12/18 06:17:00;;;;;;;15.97;13.13;;;;;;;4.90;59.83;100567.09;8364323;23;20247;-74
2023/12/18 06:20:23;;;;;;;19.40;13.97;;;;;;;4.93;59.65;100581.06;8362703;23;20213;-77
2023/12/18 06:23:44;;;;;;;21.67;14.77;;;;;;;4.90;59.03;100585.81;8364104;23;20702;-74
2023/12/18 06:27:06;;;;;;;19.57;15.17;;;;;;;5.05;58.49;100582.72;8363636;23;20268;-73
2023/12/18 06:30:28;;;;;;;20.00;14.83;;;;;;;4.86;58.93;100584.34;8363558;23;20185;-73
2023/12/18 06:33:49;;;;;;;20.40;15.43;;;;;;;4.73;59.15;100591.69;8363976;23;20717;-73
2023/12/18 06:37:12;;;;;;;20.77;14.47;;;;;;;4.49;59.63;100583.81;8364157;23;20209;-74
2023/12/18 06:40:33;;;;;;;19.53;14.30;;;;;;;4.39;59.97;100587.38;8362690;23;20332;-73
2023/12/18 06:43:55;;;;;;;21.90;16.20;;;;;;;4.61;59.81;100598.03;8362993;23;20213;-74
2023/12/18 06:47:16;;;;;;;23.80;17.00;;;;;;;4.43;59.54;100591.50;8362427;23;20183;-73
2023/12/18 06:50:38;;;;;;;17.90;14.77;;;;;;;4.66;59.50;100587.81;8361600;23;20233;-74
2023/12/18 06:54:01;;;;;;;19.53;15.67;;;;;;;4.36;59.66;100590.28;8364235;23;20658;-74
2023/12/18 06:57:22;;;;;;;20.80;16.17;;;;;;;4.42;59.63;100601.31;8363680;23;20284;-74
2023/12/18 07:00:44;;;;;;;20.97;15.73;;;;;;;4.38;59.27;100607.91;8362107;23;20752;-75
2023/12/18 07:04:06;;;;;;;22.43;15.73;;;;;;;4.67;59.26;100593.00;8362734;23;20741;-74
2023/12/18 07:07:27;;;;;;;17.10;13.80;;;;;;;4.85;58.88;100606.72;8361826;23;20235;-74
2023/12/18 07:10:50;;;;;;;16.03;12.33;;;;;;;4.65;57.72;100594.16;8362260;23;20233;-76
2023/12/18 07:14:12;;;;;;;17.53;13.90;;;;;;;4.06;59.10;100587.34;8361728;23;20328;-76
2023/12/18 07:17:33;;;;;;;20.30;14.53;;;;;;;4.47;59.57;100607.13;8363029;23;20704;-74
2023/12/18 07:20:55;;;;;;;18.93;14.27;;;;;;;4.40;59.79;100600.59;8359604;23;20233;-75
2023/12/18 07:24:17;;;;;;;17.80;13.73;;;;;;;4.44;59.42;100609.22;8363631;23;20639;-74
2023/12/18 07:27:39;;;;;;;19.03;13.87;;;;;;;4.53;59.09;100611.13;8363800;23;20182;-76
2023/12/18 07:31:01;;;;;;;26.23;17.97;;;;;;;4.32;59.89;100602.19;8362050;23;20212;-74
2023/12/18 07:34:22;;;;;;;21.30;16.13;;;;;;;4.14;59.88;100622.31;8363755;23;20189;-74
2023/12/18 07:37:44;;;;;;;20.83;15.40;;;;;;;4.51;59.96;100619.28;8363261;23;20275;-73
2023/12/18 07:41:05;;;;;;;20.40;15.73;;;;;;;4.37;59.52;100630.19;8361584;23;20246;-73
2023/12/18 07:44:28;;;;;;;24.73;15.37;;;;;;;4.40;59.36;100639.78;8363268;23;20273;-74
2023/12/18 07:47:50;;;;;;;20.20;15.23;;;;;;;4.64;59.18;100630.69;8362514;23;20215;-73
2023/12/18 07:51:11;;;;;;;26.37;17.97;;;;;;;4.56;58.23;100641.13;8362269;23;20229;-73
2023/12/18 07:54:33;;;;;;;21.07;14.90;;;;;;;4.36;59.68;100644.53;8362029;23;20271;-76
2023/12/18 07:57:54;;;;;;;22.77;16.37;;;;;;;4.38;59.46;100642.59;8363564;23;20288;-73
2023/12/18 08:01:18;;;;;;;19.10;14.97;;;;;;;4.61;59.84;100636.25;8362886;23;20237;-73
2023/12/18 08:04:39;;;;;;;17.90;14.47;;;;;;;4.52;60.13;100642.34;8363849;23;20204;-75
2023/12/18 08:08:02;;;;;;;16.17;13.10;;;;;;;4.63;60.29;100641.47;8363414;23;21076;-73
2023/12/18 08:11:23;;;;;;;17.73;13.67;;;;;;;4.80;60.18;100643.66;8362181;23;20229;-74
2023/12/18 08:14:45;;;;;;;16.23;13.70;;;;;;;5.09;59.57;100642.13;8362589;23;20188;-74
2023/12/18 08:18:08;;;;;;;14.73;11.50;;;;;;;4.92;59.55;100638.16;8361432;23;20331;-75
2023/12/18 08:21:29;;;;;;;18.90;12.87;;;;;;;4.92;59.71;100638.16;8362471;23;20206;-77
2023/12/18 08:24:51;;;;;;;17.03;13.33;;;;;;;5.09;59.56;100632.28;8362053;23;20244;-77
2023/12/18 08:28:12;;;;;;;17.87;13.10;;;;;;;5.49;59.40;100630.66;8361870;23;20312;-77
2023/12/18 08:31:37;;;;;;;21.17;14.83;;;;;;;5.78;58.48;100621.00;8361776;23;20674;-78
2023/12/18 08:35:01;;;;;;;17.53;12.83;;;;;;;5.57;58.18;100630.00;8363348;23;20189;-76
2023/12/18 08:38:22;;;;;;;17.83;13.67;;;;;;;5.65;58.45;100632.91;8359878;23;20803;-76
2023/12/18 08:41:46;;;;;;;17.17;13.13;;;;;;;6.84;55.98;100621.38;8362053;23;20241;-77
2023/12/18 08:45:08;;;;;;;14.17;12.60;;;;;;;8.23;51.99;100617.28;8360810;23;20192;-77
2023/12/18 08:48:29;;;;;;;19.83;15.63;;;;;;;8.04;52.70;100612.78;8360161;23;20209;-76
2023/12/18 08:51:52;;;;;;;20.10;15.57;;;;;;;7.80;52.25;100599.00;8360613;23;20236;-75
2023/12/18 08:55:14;;;;;;;18.53;14.37;;;;;;;7.36;53.60;100615.69;8362522;23;20396;-76
2023/12/18 08:58:37;;;;;;;18.73;13.67;;;;;;;6.79;54.79;100625.47;8362266;23;20285;-74
2023/12/18 09:01:59;;;;;;;181.63;129.07;;;;;;;6.63;56.56;100614.41;8361807;23;20241;-75
2023/12/18 09:05:20;;;;;;;23.17;18.57;;;;;;;6.21;57.34;100610.16;8362704;23;20516;-74
2023/12/18 09:08:43;;;;;;;19.70;16.07;;;;;;;6.81;57.26;100620.81;8361783;23;20262;-77
2023/12/18 09:12:05;;;;;;;19.40;14.43;;;;;;;6.66;57.11;100624.88;8359747;23;20241;-74
2023/12/18 09:15:27;;;;;;;19.03;16.50;;;;;;;6.77;57.29;100622.09;8362419;23;20793;-76
2023/12/18 09:18:48;;;;;;;15.40;13.23;;;;;;;6.90;57.09;100610.13;8359578;23;20229;-74
2023/12/18 09:22:10;;;;;;;15.87;12.67;;;;;;;7.39;56.63;100611.88;8360536;23;20235;-73
2023/12/18 09:25:32;;;;;;;14.07;12.67;;;;;;;7.17;56.78;100614.81;8363072;23;20187;-76
2023/12/18 09:28:54;;;;;;;13.87;12.37;;;;;;;7.14;56.79;100597.16;8362162;23;20203;-73
2023/12/18 09:32:16;;;;;;;14.27;11.73;;;;;;;8.11;56.17;100596.91;8360466;23;20202;-73
2023/12/18 09:35:39;;;;;;;13.77;11.27;;;;;;;8.38;54.21;100575.50;8359498;23;20201;-74
2023/12/18 09:39:01;;;;;;;14.87;11.03;;;;;;;8.07;53.49;100576.72;8356856;23;20287;-74
2023/12/18 09:42:24;;;;;;;18.20;13.77;;;;;;;7.97;53.85;100571.41;8361102;23;20247;-73
2023/12/18 09:45:46;;;;;;;17.23;13.33;;;;;;;8.22;54.42;100573.44;8362811;23;20711;-75
2023/12/18 09:49:08;;;;;;;17.57;13.80;;;;;;;8.30;53.38;100576.25;8361991;23;20190;-77
2023/12/18 09:52:30;;;;;;;15.10;12.33;;;;;;;7.50;55.69;100566.09;8362702;23;20206;-76
2023/12/18 09:55:55;;;;;;;14.70;12.17;;;;;;;8.54;55.54;100560.41;8361455;23;20194;-74
2023/12/18 09:59:18;;;;;;;13.73;11.80;;;;;;;8.53;54.35;100560.56;8362034;23;20769;-74
2023/12/18 10:02:42;;;;;;;14.97;11.70;;;;;;;9.10;52.95;100561.06;8362707;23;20712;-78
2023/12/18 10:06:04;;;;;;;13.80;12.03;;;;;;;8.99;53.40;100551.34;8362773;23;20220;-76
2023/12/18 10:09:26;;;;;;;13.13;11.47;;;;;;;9.20;52.59;100567.19;8361839;23;20203;-76
2023/12/18 10:12:48;;;;;;;14.00;10.90;;;;;;;9.02;53.14;100544.81;8360034;23;20210;-76
2023/12/18 10:16:11;;;;;;;14.07;10.97;;;;;;;9.34;52.78;100545.13;8361159;23;20278;-77
2023/12/18 10:19:33;;;;;;;21.57;11.67;;;;;;;9.40;52.53;100533.75;8360269;23;20286;-77
2023/12/18 10:22:54;;;;;;;21.83;17.23;;;;;;;9.60;53.77;100537.94;8360698;23;20937;-76
2023/12/18 10:26:16;;;;;;;18.40;15.10;;;;;;;9.17;52.92;100527.16;8361613;23;20216;-77
2023/12/18 10:29:37;;;;;;;12.33;10.20;;;;;;;8.66;53.79;100477.72;8358516;23;20193;-76
2023/12/18 10:33:05;;;;;;;12.77;9.77;;;;;;;9.02;54.50;100517.09;8362662;23;20294;-76
2023/12/18 10:36:26;;;;;;;11.87;9.47;;;;;;;9.22;53.38;100509.53;8360185;23;20175;-75
2023/12/18 10:39:50;;;;;;;13.53;9.33;;;;;;;9.30;54.16;100509.63;8360453;23;20287;-75
2023/12/18 10:43:20;;;;;;;15.17;11.87;;;;;;;9.54;53.35;100517.88;8361765;23;20236;-75
2023/12/18 10:46:42;;;;;;;12.07;9.90;;;;;;;10.09;52.80;100496.88;8359024;23;20201;-79
2023/12/18 10:50:06;;;;;;;13.73;9.10;;;;;;;10.10;52.17;100468.91;8361568;23;20220;-77
2023/12/18 10:53:28;;;;;;;11.40;8.63;;;;;;;10.40;50.88;100488.06;8362387;23;20291;-77
2023/12/18 10:56:49;;;;;;;10.17;8.13;;;;;;;10.40;51.48;100489.94;8364295;23;20224;-77
2023/12/18 11:00:14;;;;;;;9.03;6.70;;;;;;;10.51;50.39;100479.66;8374930;23;20273;-77
2023/12/18 11:03:36;;;;;;;8.30;7.43;;;;;;;11.13;49.58;100478.25;8373117;23;20209;-77
2023/12/18 11:07:00;;;;;;;11.27;8.80;;;;;;;11.36;48.98;100471.16;8363273;23;20262;-77
2023/12/18 11:10:21;;;;;;;15.20;8.80;;;;;;;11.04;49.32;100473.88;8362580;23;20225;-77
2023/12/18 11:13:55;;;;;;;12.57;8.07;;;;;;;11.62;48.59;100466.47;8365232;23;20320;-78
2023/12/18 11:17:22;;;;;;;10.10;7.43;;;;;;;12.03;48.09;100459.94;8365519;23;20629;-78
2023/12/18 11:20:44;;;;;;;8.97;7.60;;;;;;;11.79;48.54;100462.69;8363292;23;20288;-77
2023/12/18 11:24:07;;;;;;;7.90;7.10;;;;;;;11.75;47.86;100458.66;8363219;23;20268;-77
2023/12/18 11:27:29;;;;;;;10.10;7.97;;;;;;;11.92;47.59;100439.50;8362349;23;20649;-77
2023/12/18 11:30:51;;;;;;;8.30;7.47;;;;;;;12.40;47.51;100431.19;8362424;23;20281;-77
2023/12/18 11:34:12;;;;;;;8.97;7.10;;;;;;;12.47;46.64;100439.44;8360995;23;20268;-78
2023/12/18 11:37:41;;;;;;;7.57;6.73;;;;;;;12.70;46.34;100416.78;8362525;23;20241;-79
2023/12/18 11:41:04;;;;;;;8.27;7.10;;;;;;;12.63;46.69;100398.78;8366723;23;20364;-83
2023/12/18 11:44:28;;;;;;;10.30;7.17;;;;;;;12.77;46.68;100403.38;8366263;23;20637;-79
2023/12/18 11:47:51;;;;;;;8.47;7.43;;;;;;;12.35;45.75;100405.69;8365583;23;20188;-77
2023/12/18 11:51:13;;;;;;;9.63;8.63;;;;;;;12.58;45.60;100412.00;8368779;23;20702;-79
2023/12/18 11:54:35;;;;;;;9.77;8.77;;;;;;;12.93;45.12;100393.28;8371611;23;20186;-79
2023/12/18 11:57:58;;;;;;;7.10;6.40;;;;;;;12.84;45.32;100359.19;8369603;23;20281;-79
2023/12/18 12:01:20;;;;;;;6.20;5.60;;;;;;;12.96;44.74;100395.66;8367083;23;20744;-78
2023/12/18 12:04:43;;;;;;;6.30;5.70;;;;;;;13.04;43.82;100382.03;8361016;23;20213;-78
2023/12/18 12:08:04;;;;;;;5.87;5.27;;;;;;;13.13;44.49;100362.00;8362777;23;20209;-78
2023/12/18 12:11:26;;;;;;;6.57;5.30;;;;;;;13.12;44.25;100363.03;8360507;23;20271;-79
2023/12/18 12:14:49;;;;;;;5.90;5.30;;;;;;;12.94;44.59;100359.78;8362647;23;20263;-80
2023/12/18 12:18:10;;;;;;;6.27;5.67;;;;;;;12.94;44.49;100367.06;8361875;23;20206;-79
2023/12/18 12:21:33;;;;;;;9.47;6.30;;;;;;;13.60;44.29;100361.69;8362255;23;20206;-80
2023/12/18 12:24:55;;;;;;;8.13;6.17;;;;;;;13.54;44.51;100365.13;8360990;23;20292;-78
2023/12/18 12:28:16;;;;;;;5.10;4.60;;;;;;;13.57;41.95;100351.22;8363791;23;20182;-79
2023/12/18 12:31:39;;;;;;;5.17;4.67;;;;;;;13.47;42.11;100343.38;8361943;23;20212;-82
2023/12/18 12:35:01;;;;;;;5.43;4.93;;;;;;;13.70;41.65;100341.38;8361161;23;20228;-78
2023/12/18 12:38:22;;;;;;;6.40;5.00;;;;;;;13.68;42.07;100337.22;8361299;23;20238;-80
2023/12/18 12:41:45;;;;;;;5.70;4.90;;;;;;;13.57;41.83;100338.50;8359665;23;20263;-78
2023/12/18 12:45:08;;;;;;;10.17;8.07;;;;;;;14.06;40.59;100322.47;8360053;23;20709;-80
2023/12/18 12:48:31;;;;;;;14.50;10.60;;;;;;;13.40;41.97;100333.47;8362570;23;20213;-76
2023/12/18 12:51:53;;;;;;;43.30;28.07;;;;;;;13.73;42.26;100330.19;8360016;23;20201;-77
2023/12/18 12:55:14;;;;;;;10.10;8.77;;;;;;;13.68;42.86;100327.19;8362309;23;20205;-76
2023/12/18 12:58:36;;;;;;;8.27;7.47;;;;;;;13.87;42.57;100320.34;8361358;23;20670;-76
2023/12/18 13:01:57;;;;;;;8.37;6.63;;;;;;;13.18;43.40;100327.09;8361937;23;20205;-77
2023/12/18 13:05:20;;;;;;;6.10;5.20;;;;;;;13.30;41.88;100320.19;8362086;23;20182;-77
2023/12/18 13:08:42;;;;;;;5.70;5.20;;;;;;;13.39;42.12;100305.50;8361756;23;20283;-76
2023/12/18 13:12:04;;;;;;;7.90;5.47;;;;;;;13.30;42.85;100324.75;8361385;23;20236;-77
2023/12/18 13:15:26;;;;;;;6.17;5.53;;;;;;;13.46;42.32;100314.56;8362611;23;20658;-76
2023/12/18 13:18:47;;;;;;;7.47;5.40;;;;;;;13.57;42.58;100316.00;8360754;23;20216;-76
2023/12/18 13:22:10;;;;;;;7.07;6.10;;;;;;;13.91;42.55;100321.63;8362232;23;20694;-76
2023/12/18 13:25:32;;;;;;;6.93;5.80;;;;;;;14.07;42.90;100305.16;8361134;23;20236;-76
2023/12/18 13:28:53;;;;;;;6.47;5.87;;;;;;;14.12;42.81;100302.72;8362609;23;20255;-76
2023/12/18 13:32:15;;;;;;;7.37;5.87;;;;;;;14.38;42.39;100308.44;8362758;23;20233;-76
2023/12/18 13:35:36;;;;;;;8.73;6.83;;;;;;;14.48;42.69;100292.69;8361417;23;20316;-77
2023/12/18 13:38:59;;;;;;;9.37;6.67;;;;;;;14.58;41.90;100296.75;8361293;23;20205;-78
2023/12/18 13:42:21;;;;;;;7.07;6.13;;;;;;;14.69;41.67;100296.22;8361153;23;20296;-76
2023/12/18 13:45:42;;;;;;;8.67;6.40;;;;;;;14.50;40.96;100291.47;8363268;23;20614;-76
2023/12/18 13:49:04;;;;;;;6.17;5.57;;;;;;;14.46;42.09;100281.19;8361777;23;20658;-76
2023/12/18 13:52:26;;;;;;;5.87;4.77;;;;;;;14.17;42.91;100260.41;8363012;23;20206;-76
2023/12/18 13:55:49;;;;;;;4.97;4.50;;;;;;;13.59;44.31;100279.53;8361525;23;20518;-76
2023/12/18 13:59:11;;;;;;;5.70;4.67;;;;;;;12.99;45.28;100278.84;8360117;23;20341;-76
2023/12/18 14:02:33;;;;;;;5.10;4.47;;;;;;;13.31;45.03;100277.66;8361272;23;20205;-78
2023/12/18 14:05:55;;;;;;;5.77;5.00;;;;;;;13.58;44.46;100272.41;8363014;23;20213;-76
2023/12/18 14:09:17;;;;;;;5.20;4.70;;;;;;;13.65;44.13;100261.69;8362431;23;20267;-76
2023/12/18 14:12:40;;;;;;;7.23;5.20;;;;;;;13.23;45.17;100277.78;8362074;23;20291;-76
2023/12/18 14:16:03;;;;;;;5.23;4.73;;;;;;;13.61;43.97;100263.94;8360989;23;20268;-76
2023/12/18 14:19:24;;;;;;;5.57;5.03;;;;;;;13.36;44.97;100270.69;8360562;23;20209;-76
2023/12/18 14:22:46;;;;;;;5.47;4.97;;;;;;;13.17;44.86;100264.97;8362321;23;20209;-75
2023/12/18 14:26:07;;;;;;;7.60;5.70;;;;;;;13.02;45.33;100266.81;8364577;23;20274;-75
2023/12/18 14:29:30;;;;;;;7.00;5.50;;;;;;;12.68;46.43;100269.19;8362648;23;20260;-75
2023/12/18 14:32:52;;;;;;;6.37;5.77;;;;;;;12.84;46.48;100271.72;8362254;23;20291;-75
2023/12/18 14:36:13;;;;;;;6.47;5.00;;;;;;;12.77;45.74;100263.50;8362150;23;20609;-77
2023/12/18 14:39:35;;;;;;;9.73;5.80;;;;;;;12.59;46.61;100270.25;8362327;23;20647;-76
2023/12/18 14:42:57;;;;;;;9.10;5.50;;;;;;;12.26;47.85;100263.41;8362271;23;20306;-76
2023/12/18 14:46:20;;;;;;;7.50;6.53;;;;;;;11.32;50.00;100275.38;8362798;23;20811;-77
2023/12/18 14:49:42;;;;;;;7.53;6.80;;;;;;;11.71;49.76;100265.47;8363119;23;20210;-77
2023/12/18 14:53:06;;;;;;;6.90;6.00;;;;;;;11.59;49.52;100261.47;8363994;23;20784;-76
2023/12/18 14:56:28;;;;;;;7.27;6.27;;;;;;;10.98;51.14;100269.44;8363974;23;20185;-76
2023/12/18 14:59:49;;;;;;;7.67;6.23;;;;;;;10.62;52.35;100262.75;8362180;23;20710;-76
2023/12/18 15:03:12;;;;;;;9.77;6.80;;;;;;;10.77;52.55;100264.59;8362908;23;20219;-76
2023/12/18 15:06:34;;;;;;;8.07;7.27;;;;;;;10.83;52.69;100246.84;8363653;23;20182;-75
2023/12/18 15:09:55;;;;;;;7.10;6.40;;;;;;;10.96;51.64;100252.56;8362915;23;20245;-76
2023/12/18 15:13:17;;;;;;;9.13;6.43;;;;;;;10.84;52.10;100260.19;8362863;23;20203;-76
2023/12/18 15:16:38;;;;;;;7.00;6.30;;;;;;;10.54;51.33;100254.66;8363183;23;20190;-77
2023/12/18 15:20:02;;;;;;;8.93;6.47;;;;;;;10.27;52.42;100255.00;8361701;23;20288;-77
2023/12/18 15:23:23;;;;;;;8.97;7.57;;;;;;;10.09;53.58;100247.06;8361423;23;20209;-75
2023/12/18 15:26:45;;;;;;;11.27;7.77;;;;;;;10.19;53.05;100241.50;8362631;23;20281;-77
2023/12/18 15:30:07;;;;;;;13.57;10.37;;;;;;;10.11;53.44;100253.13;8363033;23;20518;-76